createdAt,value
2018-05-08T00:00:47.519Z,0
2018-05-08T00:01:47.488Z,0
2018-05-08T00:02:47.221Z,0
2018-05-08T00:03:46.952Z,0
2018-05-08T00:04:47.462Z,0
2018-05-08T00:05:47.460Z,0
2018-05-08T00:06:47.189Z,0
2018-05-08T00:07:47.424Z,0
2018-05-08T00:08:47.444Z,0
2018-05-08T00:09:47.412Z,0
2018-05-08T00:10:47.395Z,0
2018-05-08T00:11:46.887Z,0
2018-05-08T00:12:47.377Z,0
2018-05-08T00:13:47.362Z,0
2018-05-08T00:14:47.357Z,0
2018-05-08T00:15:47.084Z,0
2018-05-08T00:16:47.079Z,0
2018-05-08T00:17:47.330Z,0
2018-05-08T00:18:46.792Z,0
2018-05-08T00:19:47.042Z,0
2018-05-08T00:20:46.518Z,0
2018-05-08T00:21:47.277Z,0
2018-05-08T00:22:47.259Z,0
2018-05-08T00:23:47.262Z,0
2018-05-08T00:24:47.252Z,0
2018-05-08T00:25:46.723Z,0
2018-05-08T00:26:46.711Z,0
2018-05-08T00:27:47.214Z,0
2018-05-08T00:28:46.699Z,0
2018-05-08T00:29:46.946Z,0
2018-05-08T00:30:46.928Z,0
2018-05-08T00:31:46.917Z,0
2018-05-08T00:32:46.909Z,0
2018-05-08T00:33:47.156Z,0
2018-05-08T00:34:46.886Z,0
2018-05-08T00:35:47.140Z,0
2018-05-08T00:36:47.127Z,0
2018-05-08T00:37:47.111Z,0
2018-05-08T00:38:46.590Z,0
2018-05-08T00:39:46.837Z,0
2018-05-08T00:40:46.830Z,0
2018-05-08T00:41:46.815Z,0
2018-05-08T00:42:46.806Z,0
2018-05-08T00:43:47.052Z,0
2018-05-08T00:44:46.783Z,0
2018-05-08T00:45:47.029Z,0
2018-05-08T00:46:47.021Z,0
2018-05-08T00:47:47.019Z,0
2018-05-08T00:48:46.484Z,0
2018-05-08T00:49:46.470Z,0
2018-05-08T00:50:46.462Z,0
2018-05-08T00:51:46.739Z,0
2018-05-08T00:52:46.705Z,0
2018-05-08T00:53:46.691Z,0
2018-05-08T00:54:46.682Z,0
2018-05-08T00:55:46.666Z,0
2018-05-08T00:56:46.401Z,0
2018-05-08T00:57:46.645Z,0
2018-05-08T00:58:46.384Z,0
2018-05-08T00:59:46.636Z,0
2018-05-08T01:00:46.371Z,0
2018-05-08T01:01:46.346Z,0
2018-05-08T01:02:46.600Z,0
2018-05-08T01:03:46.839Z,0
2018-05-08T01:04:46.581Z,0
2018-05-08T01:05:46.565Z,0
2018-05-08T01:06:46.820Z,0
2018-05-08T01:07:46.546Z,0
2018-05-08T01:08:46.283Z,0
2018-05-08T01:09:46.805Z,0
2018-05-08T01:10:46.514Z,0
2018-05-08T01:11:46.605Z,0
2018-05-08T01:12:46.762Z,0
2018-05-08T01:13:46.227Z,0
2018-05-08T01:14:46.742Z,0
2018-05-08T01:15:46.720Z,0
2018-05-08T01:16:46.712Z,0
2018-05-08T01:17:46.198Z,0
2018-05-08T01:18:46.437Z,0
2018-05-08T01:19:46.424Z,0
2018-05-08T01:20:46.678Z,0
2018-05-08T01:21:46.148Z,0
2018-05-08T01:22:46.407Z,0
2018-05-08T01:23:46.402Z,0
2018-05-08T01:24:46.645Z,0
2018-05-08T01:25:46.111Z,0
2018-05-08T01:26:46.359Z,0
2018-05-08T01:27:46.138Z,0
2018-05-08T01:28:46.599Z,0
2018-05-08T01:29:46.334Z,0
2018-05-08T01:30:46.319Z,0
2018-05-08T01:31:45.799Z,0
2018-05-08T01:32:46.562Z,0
2018-05-08T01:33:46.545Z,0
2018-05-08T01:34:46.281Z,0
2018-05-08T01:35:46.528Z,0
2018-05-08T01:36:46.274Z,0
2018-05-08T01:37:46.510Z,0
2018-05-08T01:38:46.500Z,0
2018-05-08T01:39:46.492Z,0
2018-05-08T01:40:46.475Z,0
2018-05-08T01:41:46.217Z,0
2018-05-08T01:42:46.475Z,0
2018-05-08T01:43:46.196Z,0
2018-05-08T01:44:46.443Z,0
2018-05-08T01:45:46.171Z,0
2018-05-08T01:46:46.433Z,0
2018-05-08T01:47:46.421Z,0
2018-05-08T01:48:46.398Z,0
2018-05-08T01:49:46.394Z,0
2018-05-08T01:50:46.394Z,0
2018-05-08T01:51:46.116Z,0
2018-05-08T01:52:46.363Z,0
2018-05-08T01:53:46.090Z,0
2018-05-08T01:54:46.081Z,0
2018-05-08T01:55:45.823Z,0
2018-05-08T01:56:46.069Z,0
2018-05-08T01:57:45.801Z,0
2018-05-08T01:58:45.788Z,0
2018-05-08T01:59:46.292Z,0
2018-05-08T02:00:46.290Z,0
2018-05-08T02:01:46.277Z,0
2018-05-08T02:02:46.267Z,0
2018-05-08T02:03:46.255Z,0
2018-05-08T02:04:46.250Z,0
2018-05-08T02:05:46.242Z,0
2018-05-08T02:06:45.968Z,0
2018-05-08T02:07:45.706Z,0
2018-05-08T02:08:45.955Z,0
2018-05-08T02:09:45.691Z,0
2018-05-08T02:10:45.928Z,0
2018-05-08T02:11:45.935Z,0
2018-05-08T02:12:45.658Z,0
2018-05-08T02:13:46.161Z,0
2018-05-08T02:14:45.897Z,0
2018-05-08T02:15:45.885Z,0
2018-05-08T02:16:45.888Z,0
2018-05-08T02:17:46.137Z,0
2018-05-08T02:18:45.859Z,0
2018-05-08T02:19:45.849Z,0
2018-05-08T02:20:46.103Z,0
2018-05-08T02:21:45.839Z,0
2018-05-08T02:22:45.826Z,0
2018-05-08T02:23:45.815Z,0
2018-05-08T02:24:45.543Z,0
2018-05-08T02:25:45.799Z,0
2018-05-08T02:26:46.048Z,0
2018-05-08T02:27:45.774Z,0
2018-05-08T02:28:45.764Z,0
2018-05-08T02:29:45.497Z,0
2018-05-08T02:30:46.009Z,0
2018-05-08T02:31:46.025Z,0
2018-05-08T02:32:45.990Z,0
2018-05-08T02:33:45.993Z,0
2018-05-08T02:34:45.717Z,0
2018-05-08T02:35:45.976Z,0
2018-05-08T02:36:45.956Z,0
2018-05-08T02:37:45.946Z,0
2018-05-08T02:38:45.686Z,0
2018-05-08T02:39:45.662Z,0
2018-05-08T02:40:45.386Z,0
2018-05-08T02:41:45.401Z,0
2018-05-08T02:42:45.886Z,0
2018-05-08T02:43:45.891Z,0
2018-05-08T02:44:45.619Z,0
2018-05-08T02:45:45.863Z,0
2018-05-08T02:46:45.842Z,0
2018-05-08T02:47:45.323Z,0
2018-05-08T02:48:45.571Z,0
2018-05-08T02:49:45.565Z,0
2018-05-08T02:50:45.815Z,0
2018-05-08T02:51:45.809Z,0
2018-05-08T02:52:45.950Z,0
2018-05-08T02:53:45.802Z,0
2018-05-08T02:54:45.772Z,0
2018-05-08T02:55:45.507Z,0
2018-05-08T02:56:45.489Z,4
2018-05-08T02:57:45.226Z,4
2018-05-08T02:58:45.736Z,0
2018-05-08T02:59:45.721Z,0
2018-05-08T03:00:45.278Z,4
2018-05-08T03:01:45.444Z,0
2018-05-08T03:02:45.447Z,4
2018-05-08T03:03:45.694Z,4
2018-05-08T03:04:45.439Z,8
2018-05-08T03:05:45.661Z,8
2018-05-08T03:06:45.138Z,8
2018-05-08T03:07:45.391Z,8
2018-05-08T03:08:45.633Z,12
2018-05-08T03:09:45.358Z,12
2018-05-08T03:10:45.347Z,12
2018-05-08T03:11:45.607Z,16
2018-05-08T03:12:45.617Z,20
2018-05-08T03:13:45.317Z,20
2018-05-08T03:14:45.322Z,24
2018-05-08T03:15:45.301Z,28
2018-05-08T03:16:45.548Z,32
2018-05-08T03:17:45.278Z,32
2018-05-08T03:18:45.520Z,40
2018-05-08T03:19:44.992Z,44
2018-05-08T03:20:44.986Z,52
2018-05-08T03:21:45.228Z,60
2018-05-08T03:22:45.222Z,64
2018-05-08T03:23:45.474Z,76
2018-05-08T03:24:45.463Z,84
2018-05-08T03:25:45.188Z,92
2018-05-08T03:26:44.930Z,104
2018-05-08T03:27:45.171Z,112
2018-05-08T03:28:45.152Z,124
2018-05-08T03:29:44.885Z,136
2018-05-08T03:30:45.407Z,148
2018-05-08T03:31:45.405Z,160
2018-05-08T03:32:45.396Z,180
2018-05-08T03:33:45.367Z,192
2018-05-08T03:34:45.352Z,212
2018-05-08T03:35:45.085Z,228
2018-05-08T03:36:45.079Z,244
2018-05-08T03:37:45.063Z,264
2018-05-08T03:38:45.050Z,284
2018-05-08T03:39:44.784Z,308
2018-05-08T03:40:45.286Z,328
2018-05-08T03:41:45.015Z,348
2018-05-08T03:42:45.270Z,372
2018-05-08T03:43:45.264Z,392
2018-05-08T03:44:44.984Z,416
2018-05-08T03:45:44.978Z,444
2018-05-08T03:46:45.215Z,464
2018-05-08T03:47:45.212Z,492
2018-05-08T03:48:44.941Z,516
2018-05-08T03:49:45.187Z,540
2018-05-08T03:50:45.189Z,564
2018-05-08T03:51:44.658Z,588
2018-05-08T03:52:44.645Z,616
2018-05-08T03:53:45.143Z,644
2018-05-08T03:54:44.615Z,664
2018-05-08T03:55:44.865Z,696
2018-05-08T03:56:44.340Z,720
2018-05-08T03:57:45.097Z,748
2018-05-08T03:58:44.833Z,772
2018-05-08T03:59:45.074Z,796
2018-05-08T04:00:44.809Z,820
2018-05-08T04:01:44.552Z,848
2018-05-08T04:02:44.591Z,872
2018-05-08T04:03:45.023Z,896
2018-05-08T04:04:44.513Z,920
2018-05-08T04:05:45.005Z,944
2018-05-08T04:06:44.999Z,972
2018-05-08T04:07:44.983Z,996
2018-05-08T04:08:44.730Z,1016
2018-05-08T04:09:44.710Z,1044
2018-05-08T04:10:44.700Z,1064
2018-05-08T04:11:44.688Z,1092
2018-05-08T04:12:44.671Z,1112
2018-05-08T04:13:44.146Z,1136
2018-05-08T04:14:44.904Z,1156
2018-05-08T04:15:44.647Z,1180
2018-05-08T04:16:44.888Z,1200
2018-05-08T04:17:44.358Z,1224
2018-05-08T04:18:44.863Z,1244
2018-05-08T04:19:44.848Z,1264
2018-05-08T04:20:44.582Z,1284
2018-05-08T04:21:44.310Z,1308
2018-05-08T04:22:44.560Z,1324
2018-05-08T04:23:44.563Z,1344
2018-05-08T04:24:44.797Z,1368
2018-05-08T04:25:44.535Z,1388
2018-05-08T04:26:44.521Z,1408
2018-05-08T04:27:44.755Z,1424
2018-05-08T04:28:44.760Z,1448
2018-05-08T04:29:44.228Z,1464
2018-05-08T04:30:44.208Z,1484
2018-05-08T04:31:44.455Z,1500
2018-05-08T04:32:44.697Z,1516
2018-05-08T04:33:44.176Z,1532
2018-05-08T04:34:44.694Z,1552
2018-05-08T04:35:43.892Z,1568
2018-05-08T04:36:44.658Z,1584
2018-05-08T04:37:44.651Z,1604
2018-05-08T04:38:44.640Z,1620
2018-05-08T04:39:44.105Z,1636
2018-05-08T04:40:44.096Z,1656
2018-05-08T04:41:44.339Z,1672
2018-05-08T04:42:44.590Z,1688
2018-05-08T04:43:44.058Z,1704
2018-05-08T04:44:44.582Z,1724
2018-05-08T04:45:44.040Z,1740
2018-05-08T04:46:44.295Z,1760
2018-05-08T04:47:44.541Z,1776
2018-05-08T04:48:43.748Z,1796
2018-05-08T04:49:44.004Z,1812
2018-05-08T04:50:44.496Z,1824
2018-05-08T04:51:43.976Z,1844
2018-05-08T04:52:44.233Z,1856
2018-05-08T04:53:43.952Z,1868
2018-05-08T04:54:44.201Z,1880
2018-05-08T04:55:44.435Z,1892
2018-05-08T04:56:44.433Z,1908
2018-05-08T04:57:43.906Z,1924
2018-05-08T04:58:44.163Z,1936
2018-05-08T04:59:44.147Z,1948
2018-05-08T05:00:44.130Z,1960
2018-05-08T05:01:43.862Z,1968
2018-05-08T05:02:44.300Z,1976
2018-05-08T05:03:44.355Z,1988
2018-05-08T05:04:44.083Z,1996
2018-05-08T05:05:44.359Z,2008
2018-05-08T05:06:43.809Z,2024
2018-05-08T05:07:44.051Z,2040
2018-05-08T05:08:44.048Z,2056
2018-05-08T05:09:44.292Z,2068
2018-05-08T05:10:44.314Z,2080
2018-05-08T05:11:44.272Z,2092
2018-05-08T05:12:44.260Z,2104
2018-05-08T05:13:43.985Z,2120
2018-05-08T05:14:44.244Z,2136
2018-05-08T05:15:43.966Z,2152
2018-05-08T05:16:43.757Z,2164
2018-05-08T05:17:43.944Z,2172
2018-05-08T05:18:44.190Z,2184
2018-05-08T05:19:43.937Z,2200
2018-05-08T05:20:44.175Z,2212
2018-05-08T05:21:44.158Z,2216
2018-05-08T05:22:43.904Z,2228
2018-05-08T05:23:43.624Z,2236
2018-05-08T05:24:44.123Z,2244
2018-05-08T05:25:43.602Z,2252
2018-05-08T05:26:44.122Z,2264
2018-05-08T05:27:44.101Z,2264
2018-05-08T05:28:43.574Z,2272
2018-05-08T05:29:43.823Z,2284
2018-05-08T05:30:43.809Z,2296
2018-05-08T05:31:44.121Z,2304
2018-05-08T05:32:44.048Z,2312
2018-05-08T05:33:43.778Z,2320
2018-05-08T05:34:43.776Z,2328
2018-05-08T05:35:43.757Z,2332
2018-05-08T05:36:43.496Z,2340
2018-05-08T05:37:43.483Z,2348
2018-05-08T05:38:43.991Z,2364
2018-05-08T05:39:43.979Z,2372
2018-05-08T05:40:43.703Z,2388
2018-05-08T05:41:43.974Z,2400
2018-05-08T05:42:43.680Z,2412
2018-05-08T05:43:43.949Z,2420
2018-05-08T05:44:43.674Z,2428
2018-05-08T05:45:43.661Z,2440
2018-05-08T05:46:43.649Z,2448
2018-05-08T05:47:43.898Z,2456
2018-05-08T05:48:43.937Z,2468
2018-05-08T05:49:43.888Z,2476
2018-05-08T05:50:43.871Z,2480
2018-05-08T05:51:43.859Z,2484
2018-05-08T05:52:43.863Z,2488
2018-05-08T05:53:43.841Z,2492
2018-05-08T05:54:43.839Z,2504
2018-05-08T05:55:43.828Z,2512
2018-05-08T05:56:43.557Z,2528
2018-05-08T05:57:43.556Z,2544
2018-05-08T05:58:43.799Z,2556
2018-05-08T05:59:43.793Z,2564
2018-05-08T06:00:43.532Z,2568
2018-05-08T06:01:43.525Z,2572
2018-05-08T06:02:43.249Z,2580
2018-05-08T06:03:43.503Z,2592
2018-05-08T06:04:43.754Z,2604
2018-05-08T06:05:43.732Z,2616
2018-05-08T06:06:43.467Z,2624
2018-05-08T06:07:43.725Z,2628
2018-05-08T06:08:43.450Z,2632
2018-05-08T06:09:43.443Z,2636
2018-05-08T06:10:43.427Z,2644
2018-05-08T06:11:43.428Z,2660
2018-05-08T06:12:43.668Z,2672
2018-05-08T06:13:43.399Z,2680
2018-05-08T06:14:43.132Z,2696
2018-05-08T06:15:43.391Z,2712
2018-05-08T06:16:43.789Z,2720
2018-05-08T06:17:43.400Z,2728
2018-05-08T06:18:43.375Z,2744
2018-05-08T06:19:43.779Z,2756
2018-05-08T06:20:43.604Z,2776
2018-05-08T06:21:43.772Z,2792
2018-05-08T06:22:43.720Z,2816
2018-05-08T06:23:43.576Z,2884
2018-05-08T06:24:43.580Z,3216
2018-05-08T06:25:43.054Z,3260
2018-05-08T06:26:43.385Z,3332
2018-05-08T06:27:43.292Z,3684
2018-05-08T06:28:43.413Z,3588
2018-05-08T06:29:43.523Z,4792
2018-05-08T06:30:43.518Z,5416
2018-05-08T06:31:43.546Z,10072
2018-05-08T06:32:43.282Z,19360
2018-05-08T06:33:43.503Z,21280
2018-05-08T06:34:43.250Z,13508
2018-05-08T06:35:43.531Z,16960
2018-05-08T06:36:42.955Z,20096
2018-05-08T06:37:43.208Z,17120
2018-05-08T06:38:43.204Z,16736
2018-05-08T06:39:43.314Z,16192
2018-05-08T06:40:43.191Z,21632
2018-05-08T06:41:43.435Z,24960
2018-05-08T06:42:43.186Z,14204
2018-05-08T06:43:43.164Z,15776
2018-05-08T06:44:42.906Z,21088
2018-05-08T06:45:43.150Z,27264
2018-05-08T06:46:43.704Z,35008
2018-05-08T06:47:43.141Z,42784
2018-05-08T06:48:43.477Z,46272
2018-05-08T06:49:43.385Z,45472
2018-05-08T06:50:43.437Z,41568
2018-05-08T06:51:43.118Z,37376
2018-05-08T06:52:43.384Z,38400
2018-05-08T06:53:43.368Z,41120
2018-05-08T06:54:43.368Z,39072
2018-05-08T06:55:42.846Z,39168
2018-05-08T06:56:43.358Z,39360
2018-05-08T06:57:43.099Z,38464
2018-05-08T06:58:43.090Z,37568
2018-05-08T06:59:43.111Z,33120
2018-05-08T07:00:43.345Z,30048
2018-05-08T07:01:42.577Z,30528
2018-05-08T07:02:43.094Z,34656
2018-05-08T07:03:43.349Z,39840
2018-05-08T07:04:43.082Z,42144
2018-05-08T07:05:43.097Z,42208
2018-05-08T07:06:43.351Z,41920
2018-05-08T07:07:43.091Z,42944
2018-05-08T07:08:43.095Z,42528
2018-05-08T07:09:43.092Z,42912
2018-05-08T07:10:43.091Z,42816
2018-05-08T07:11:43.166Z,44256
2018-05-08T07:12:43.421Z,44192
2018-05-08T07:13:43.154Z,43776
2018-05-08T07:14:43.094Z,45088
2018-05-08T07:15:43.390Z,44352
2018-05-08T07:16:43.361Z,45568
2018-05-08T07:17:43.367Z,45696
2018-05-08T07:18:43.369Z,44800
2018-05-08T07:19:43.105Z,46720
2018-05-08T07:20:43.114Z,46496
2018-05-08T07:21:43.118Z,48288
2018-05-08T07:22:43.376Z,49408
2018-05-08T07:23:43.377Z,46944
2018-05-08T07:24:43.391Z,45632
2018-05-08T07:25:43.134Z,45632
2018-05-08T07:26:43.132Z,35680
2018-05-08T07:27:43.139Z,19104
2018-05-08T07:28:43.403Z,7200
2018-05-08T07:29:42.891Z,5860
2018-05-08T07:30:43.459Z,5288
2018-05-08T07:31:43.414Z,4912
2018-05-08T07:32:43.411Z,4652
2018-05-08T07:33:43.230Z,4444
2018-05-08T07:34:43.425Z,4288
2018-05-08T07:35:43.172Z,4160
2018-05-08T07:36:43.431Z,4040
2018-05-08T07:37:43.189Z,3940
2018-05-08T07:38:43.451Z,3868
2018-05-08T07:39:42.990Z,3824
2018-05-08T07:40:43.485Z,3788
2018-05-08T07:41:43.214Z,3764
2018-05-08T07:42:43.547Z,3732
2018-05-08T07:43:43.476Z,3712
2018-05-08T07:44:43.220Z,3704
2018-05-08T07:45:43.497Z,3704
2018-05-08T07:46:43.488Z,3696
2018-05-08T07:47:43.236Z,3696
2018-05-08T07:48:43.490Z,3700
2018-05-08T07:49:42.725Z,3696
2018-05-08T07:50:43.610Z,3692
2018-05-08T07:51:43.678Z,3680
2018-05-08T07:52:43.258Z,3668
2018-05-08T07:53:43.261Z,3664
2018-05-08T07:54:43.532Z,3644
2018-05-08T07:55:43.267Z,3628
2018-05-08T07:56:43.536Z,3608
2018-05-08T07:57:43.039Z,3600
2018-05-08T07:58:43.017Z,3596
2018-05-08T07:59:43.535Z,3592
2018-05-08T08:00:43.559Z,3584
2018-05-08T08:01:43.548Z,3576
2018-05-08T08:02:43.547Z,3572
2018-05-08T08:03:43.712Z,3568
2018-05-08T08:04:43.556Z,3552
2018-05-08T08:05:43.298Z,3552
2018-05-08T08:06:43.305Z,3540
2018-05-08T08:07:43.739Z,3528
2018-05-08T08:08:43.568Z,3516
2018-05-08T08:09:43.309Z,3508
2018-05-08T08:10:43.304Z,3504
2018-05-08T08:11:43.049Z,3508
2018-05-08T08:12:43.308Z,3512
2018-05-08T08:13:43.572Z,3508
2018-05-08T08:14:43.314Z,3496
2018-05-08T08:15:42.812Z,3492
2018-05-08T08:16:43.318Z,3488
2018-05-08T08:17:43.070Z,3476
2018-05-08T08:18:43.570Z,3472
2018-05-08T08:19:43.315Z,3484
2018-05-08T08:20:43.586Z,3488
2018-05-08T08:21:43.326Z,3484
2018-05-08T08:22:43.070Z,3488
2018-05-08T08:23:43.642Z,3500
2018-05-08T08:24:43.590Z,3500
2018-05-08T08:25:43.326Z,3508
2018-05-08T08:26:43.594Z,3520
2018-05-08T08:27:43.595Z,3528
2018-05-08T08:28:43.586Z,3524
2018-05-08T08:29:43.207Z,3520
2018-05-08T08:30:43.076Z,3516
2018-05-08T08:31:43.641Z,3508
2018-05-08T08:32:43.352Z,3504
2018-05-08T08:33:43.331Z,3496
2018-05-08T08:34:43.590Z,3492
2018-05-08T08:35:43.504Z,3496
2018-05-08T08:36:43.748Z,3496
2018-05-08T08:37:43.607Z,3500
2018-05-08T08:38:43.333Z,3488
2018-05-08T08:39:43.342Z,3484
2018-05-08T08:40:43.335Z,3488
2018-05-08T08:41:43.078Z,3492
2018-05-08T08:42:43.338Z,3492
2018-05-08T08:43:43.603Z,3496
2018-05-08T08:44:43.076Z,3504
2018-05-08T08:45:43.597Z,3500
2018-05-08T08:46:43.698Z,3496
2018-05-08T08:47:43.773Z,3484
2018-05-08T08:48:43.342Z,3484
2018-05-08T08:49:43.599Z,3492
2018-05-08T08:50:43.342Z,3492
2018-05-08T08:51:43.598Z,3488
2018-05-08T08:52:43.335Z,3484
2018-05-08T08:53:43.338Z,3476
2018-05-08T08:54:43.593Z,3480
2018-05-08T08:55:43.597Z,3472
2018-05-08T08:56:43.598Z,3468
2018-05-08T08:57:43.084Z,3472
2018-05-08T08:58:43.585Z,3480
2018-05-08T08:59:43.347Z,3488
2018-05-08T09:00:43.337Z,3496
2018-05-08T09:01:43.340Z,3500
2018-05-08T09:02:43.345Z,3504
2018-05-08T09:03:43.596Z,3516
2018-05-08T09:04:43.085Z,3520
2018-05-08T09:05:43.338Z,3532
2018-05-08T09:06:43.078Z,3524
2018-05-08T09:07:43.590Z,3528
2018-05-08T09:08:43.340Z,3532
2018-05-08T09:09:43.591Z,3520
2018-05-08T09:10:43.596Z,3516
2018-05-08T09:11:43.332Z,3512
2018-05-08T09:12:43.605Z,3500
2018-05-08T09:13:43.597Z,3504
2018-05-08T09:14:43.594Z,3500
2018-05-08T09:15:43.342Z,3500
2018-05-08T09:16:43.602Z,3504
2018-05-08T09:17:43.594Z,3508
2018-05-08T09:18:43.341Z,3508
2018-05-08T09:19:43.415Z,3508
2018-05-08T09:20:43.340Z,3488
2018-05-08T09:21:43.331Z,3488
2018-05-08T09:22:43.599Z,3472
2018-05-08T09:23:43.080Z,3464
2018-05-08T09:24:43.603Z,3464
2018-05-08T09:25:42.830Z,3456
2018-05-08T09:26:43.592Z,3460
2018-05-08T09:27:43.750Z,3456
2018-05-08T09:28:43.599Z,3456
2018-05-08T09:29:43.335Z,3464
2018-05-08T09:30:43.077Z,3464
2018-05-08T09:31:43.339Z,3468
2018-05-08T09:32:43.334Z,3468
2018-05-08T09:33:43.340Z,3468
2018-05-08T09:34:43.605Z,3472
2018-05-08T09:35:43.598Z,3476
2018-05-08T09:36:43.340Z,3480
2018-05-08T09:37:43.338Z,3488
2018-05-08T09:38:43.338Z,3496
2018-05-08T09:39:43.671Z,3500
2018-05-08T09:40:43.590Z,3488
2018-05-08T09:41:43.599Z,3492
2018-05-08T09:42:43.083Z,3488
2018-05-08T09:43:43.367Z,3476
2018-05-08T09:44:43.594Z,3460
2018-05-08T09:45:43.414Z,3448
2018-05-08T09:46:43.344Z,3448
2018-05-08T09:47:43.595Z,3432
2018-05-08T09:48:43.340Z,3432
2018-05-08T09:49:43.338Z,3428
2018-05-08T09:50:43.083Z,3428
2018-05-08T09:51:43.345Z,3428
2018-05-08T09:52:43.606Z,3420
2018-05-08T09:53:43.603Z,3412
2018-05-08T09:54:43.355Z,3400
2018-05-08T09:55:43.609Z,3400
2018-05-08T09:56:43.339Z,3408
2018-05-08T09:57:43.597Z,3436
2018-05-08T09:58:43.604Z,3452
2018-05-08T09:59:43.353Z,3448
2018-05-08T10:00:42.826Z,3412
2018-05-08T10:01:43.345Z,3416
2018-05-08T10:02:43.089Z,3416
2018-05-08T10:03:42.830Z,3408
2018-05-08T10:04:43.345Z,3400
2018-05-08T10:05:43.356Z,3392
2018-05-08T10:06:43.558Z,3384
2018-05-08T10:07:43.087Z,3368
2018-05-08T10:08:43.594Z,3368
2018-05-08T10:09:43.609Z,3376
2018-05-08T10:10:43.356Z,3388
2018-05-08T10:11:43.366Z,3388
2018-05-08T10:12:43.094Z,3392
2018-05-08T10:13:43.605Z,3388
2018-05-08T10:14:43.346Z,3364
2018-05-08T10:15:43.605Z,3360
2018-05-08T10:16:43.350Z,3356
2018-05-08T10:17:43.091Z,3356
2018-05-08T10:18:43.355Z,3364
2018-05-08T10:19:43.630Z,3352
2018-05-08T10:20:43.888Z,3356
2018-05-08T10:21:43.353Z,3360
2018-05-08T10:22:43.095Z,3364
2018-05-08T10:23:43.365Z,3356
2018-05-08T10:24:43.608Z,3348
2018-05-08T10:25:43.361Z,3352
2018-05-08T10:26:43.530Z,3336
2018-05-08T10:27:43.407Z,3320
2018-05-08T10:28:43.366Z,3320
2018-05-08T10:29:43.372Z,3324
2018-05-08T10:30:43.373Z,3324
2018-05-08T10:31:43.619Z,3328
2018-05-08T10:32:43.358Z,3320
2018-05-08T10:33:43.103Z,3312
2018-05-08T10:34:43.118Z,3300
2018-05-08T10:35:43.643Z,3280
2018-05-08T10:36:43.363Z,3280
2018-05-08T10:37:43.359Z,3284
2018-05-08T10:38:43.362Z,3292
2018-05-08T10:39:43.363Z,3288
2018-05-08T10:40:43.363Z,3296
2018-05-08T10:41:43.617Z,3300
2018-05-08T10:42:43.817Z,3304
2018-05-08T10:43:43.623Z,3308
2018-05-08T10:44:43.364Z,3296
2018-05-08T10:45:43.361Z,3288
2018-05-08T10:46:43.359Z,3276
2018-05-08T10:47:43.637Z,3268
2018-05-08T10:48:43.368Z,3260
2018-05-08T10:49:43.105Z,3236
2018-05-08T10:50:43.109Z,3236
2018-05-08T10:51:43.114Z,3232
2018-05-08T10:52:43.378Z,3224
2018-05-08T10:53:43.114Z,3216
2018-05-08T10:54:43.374Z,3212
2018-05-08T10:55:43.502Z,3208
2018-05-08T10:56:43.376Z,3208
2018-05-08T10:57:43.622Z,3216
2018-05-08T10:58:43.628Z,3228
2018-05-08T10:59:43.632Z,3240
2018-05-08T11:00:43.379Z,3248
2018-05-08T11:01:43.988Z,3248
2018-05-08T11:02:43.635Z,3252
2018-05-08T11:03:43.627Z,3248
2018-05-08T11:04:43.659Z,3244
2018-05-08T11:05:43.379Z,3244
2018-05-08T11:06:43.373Z,3232
2018-05-08T11:07:43.130Z,3220
2018-05-08T11:08:43.666Z,3196
2018-05-08T11:09:43.645Z,3192
2018-05-08T11:10:43.645Z,3184
2018-05-08T11:11:43.383Z,3184
2018-05-08T11:12:43.822Z,3168
2018-05-08T11:13:43.649Z,3156
2018-05-08T11:14:43.441Z,3144
2018-05-08T11:15:43.389Z,3132
2018-05-08T11:16:43.662Z,3140
2018-05-08T11:17:43.385Z,3176
2018-05-08T11:18:43.386Z,3180
2018-05-08T11:19:43.862Z,3148
2018-05-08T11:20:43.137Z,3132
2018-05-08T11:21:43.661Z,3124
2018-05-08T11:22:43.654Z,3120
2018-05-08T11:23:43.643Z,3128
2018-05-08T11:24:43.398Z,3128
2018-05-08T11:25:43.658Z,3120
2018-05-08T11:26:43.581Z,3116
2018-05-08T11:27:43.393Z,3112
2018-05-08T11:28:43.650Z,3112
2018-05-08T11:29:43.140Z,3096
2018-05-08T11:30:43.150Z,3092
2018-05-08T11:31:43.667Z,3088
2018-05-08T11:32:43.149Z,3076
2018-05-08T11:33:43.403Z,3084
2018-05-08T11:34:43.407Z,3072
2018-05-08T11:35:43.148Z,3072
2018-05-08T11:36:43.432Z,3064
2018-05-08T11:37:43.410Z,3052
2018-05-08T11:38:43.413Z,3044
2018-05-08T11:39:43.455Z,3028
2018-05-08T11:40:43.727Z,3016
2018-05-08T11:41:43.413Z,3012
2018-05-08T11:42:43.201Z,3008
2018-05-08T11:43:43.181Z,2988
2018-05-08T11:44:43.512Z,2988
2018-05-08T11:45:43.157Z,3044
2018-05-08T11:46:43.684Z,3148
2018-05-08T11:47:43.417Z,3268
2018-05-08T11:48:43.418Z,3276
2018-05-08T11:49:43.421Z,3164
2018-05-08T11:50:43.417Z,3108
2018-05-08T11:51:43.427Z,3076
2018-05-08T11:52:43.686Z,3076
2018-05-08T11:53:43.685Z,3068
2018-05-08T11:54:43.686Z,3048
2018-05-08T11:55:43.433Z,3032
2018-05-08T11:56:43.434Z,3032
2018-05-08T11:57:43.700Z,3020
2018-05-08T11:58:43.436Z,3008
2018-05-08T11:59:43.236Z,2992
2018-05-08T12:00:43.175Z,2984
2018-05-08T12:01:43.691Z,2976
2018-05-08T12:02:43.814Z,2968
2018-05-08T12:03:43.697Z,2968
2018-05-08T12:04:43.448Z,2980
2018-05-08T12:05:43.446Z,3004
2018-05-08T12:06:43.446Z,3004
2018-05-08T12:07:43.446Z,3024
2018-05-08T12:08:43.711Z,3044
2018-05-08T12:09:43.706Z,3080
2018-05-08T12:10:43.189Z,3148
2018-05-08T12:11:43.709Z,3144
2018-05-08T12:12:43.456Z,3056
2018-05-08T12:13:43.450Z,3056
2018-05-08T12:14:44.218Z,3064
2018-05-08T12:15:43.193Z,3056
2018-05-08T12:16:43.197Z,3044
2018-05-08T12:17:43.459Z,3032
2018-05-08T12:18:43.760Z,2996
2018-05-08T12:19:43.715Z,2972
2018-05-08T12:20:43.459Z,2960
2018-05-08T12:21:43.561Z,2960
2018-05-08T12:22:43.747Z,2956
2018-05-08T12:23:43.465Z,3024
2018-05-08T12:24:44.187Z,3124
2018-05-08T12:25:44.274Z,3228
2018-05-08T12:26:44.232Z,3224
2018-05-08T12:27:43.472Z,3100
2018-05-08T12:28:43.984Z,3016
2018-05-08T12:29:43.857Z,2960
2018-05-08T12:30:43.943Z,2936
2018-05-08T12:31:43.568Z,2940
2018-05-08T12:32:43.775Z,2936
2018-05-08T12:33:43.728Z,2924
2018-05-08T12:34:43.472Z,2908
2018-05-08T12:35:43.528Z,2904
2018-05-08T12:36:43.487Z,2916
2018-05-08T12:37:43.733Z,2948
2018-05-08T12:38:43.483Z,2972
2018-05-08T12:39:43.496Z,2992
2018-05-08T12:40:43.480Z,2992
2018-05-08T12:41:43.741Z,2732
2018-05-08T12:42:43.493Z,2596
2018-05-08T12:43:43.498Z,3008
2018-05-08T12:44:43.484Z,3048
2018-05-08T12:45:43.757Z,3068
2018-05-08T12:46:43.494Z,3140
2018-05-08T12:47:43.234Z,3168
2018-05-08T12:48:43.486Z,3212
2018-05-08T12:49:43.751Z,3144
2018-05-08T12:50:43.495Z,3100
2018-05-08T12:51:43.233Z,3072
2018-05-08T12:52:43.751Z,3060
2018-05-08T12:53:43.514Z,3064
2018-05-08T12:54:43.240Z,3036
2018-05-08T12:55:43.498Z,3048
2018-05-08T12:56:43.762Z,3052
2018-05-08T12:57:43.497Z,3084
2018-05-08T12:58:43.498Z,3132
2018-05-08T12:59:43.766Z,3124
2018-05-08T13:00:43.508Z,2956
2018-05-08T13:01:43.766Z,3020
2018-05-08T13:02:43.779Z,2676
2018-05-08T13:03:43.765Z,2832
2018-05-08T13:04:43.503Z,2844
2018-05-08T13:05:43.941Z,2708
2018-05-08T13:06:42.997Z,3148
2018-05-08T13:07:43.760Z,2704
2018-05-08T13:08:43.516Z,2688
2018-05-08T13:09:43.517Z,2756
2018-05-08T13:10:43.772Z,3196
2018-05-08T13:11:43.863Z,3200
2018-05-08T13:12:43.772Z,3200
2018-05-08T13:13:43.781Z,3200
2018-05-08T13:14:43.776Z,3324
2018-05-08T13:15:43.774Z,3412
2018-05-08T13:16:43.781Z,3380
2018-05-08T13:17:43.776Z,3328
2018-05-08T13:18:43.773Z,3012
2018-05-08T13:19:43.775Z,3212
2018-05-08T13:20:43.512Z,3232
2018-05-08T13:21:43.523Z,3332
2018-05-08T13:22:43.519Z,3276
2018-05-08T13:23:43.525Z,3852
2018-05-08T13:24:43.784Z,4248
2018-05-08T13:25:43.520Z,4660
2018-05-08T13:26:43.782Z,4512
2018-05-08T13:27:43.788Z,4224
2018-05-08T13:28:43.788Z,4196
2018-05-08T13:29:43.274Z,4352
2018-05-08T13:30:43.271Z,4232
2018-05-08T13:31:43.534Z,4568
2018-05-08T13:32:43.792Z,4516
2018-05-08T13:33:43.271Z,4344
2018-05-08T13:34:43.536Z,4296
2018-05-08T13:35:43.273Z,3764
2018-05-08T13:36:44.137Z,3596
2018-05-08T13:37:43.537Z,3548